createdAt,value
2023-02-11T00:00:25.354Z,98913.94
2023-02-11T00:02:52.981Z,98916.53
2023-02-11T00:05:22.006Z,98911.28
2023-02-11T00:07:49.723Z,98914.69
2023-02-11T00:10:17.367Z,98910.38
2023-02-11T00:12:45.015Z,98911.56
2023-02-11T00:15:12.802Z,98902.06
2023-02-11T00:17:40.455Z,98913.22
2023-02-11T00:20:08.856Z,98914.13
2023-02-11T00:22:38.155Z,98905.63
2023-02-11T00:25:06.408Z,98906.53
2023-02-11T00:27:34.220Z,98902.19
2023-02-11T00:30:02.601Z,98895.50
2023-02-11T00:32:30.332Z,98888.72
2023-02-11T00:34:58.029Z,98889.34
2023-02-11T00:37:25.683Z,98894.63
2023-02-11T00:39:54.873Z,98888.63
2023-02-11T00:42:22.546Z,98891.94
2023-02-11T00:44:50.315Z,98893.66
2023-02-11T00:47:18.102Z,98895.41
2023-02-11T00:49:45.714Z,98894.53
2023-02-11T00:52:13.376Z,98896.25
2023-02-11T00:54:41.059Z,98903.09
2023-02-11T00:57:10.072Z,98904.00
2023-02-11T00:59:37.766Z,98897.13
2023-02-11T01:02:05.385Z,98896.41
2023-02-11T01:04:33.059Z,98893.84
2023-02-11T01:07:00.704Z,98896.41
2023-02-11T01:09:28.383Z,98898.91
2023-02-11T01:11:56.255Z,98888.59
2023-02-11T01:14:25.322Z,98884.28
2023-02-11T01:16:52.980Z,98879.19
2023-02-11T01:19:20.835Z,98874.94
2023-02-11T01:21:48.478Z,98877.69
2023-02-11T01:24:16.206Z,98882.84
2023-02-11T01:26:43.840Z,98875.19
2023-02-11T01:29:11.496Z,98871.69
2023-02-11T01:31:40.574Z,98861.22
2023-02-11T01:34:08.260Z,98855.88
2023-02-11T01:36:35.904Z,98862.81
2023-02-11T01:39:03.563Z,98846.50
2023-02-11T01:41:31.231Z,98841.16
2023-02-11T01:43:59.066Z,98833.41
2023-02-11T01:46:34.964Z,98840.38
2023-02-11T01:49:06.718Z,98834.41
2023-02-11T01:51:38.291Z,98831.81
2023-02-11T01:54:25.002Z,98832.53
2023-02-11T01:57:11.877Z,98816.22
2023-02-11T01:59:42.561Z,98827.25
2023-02-11T02:02:12.958Z,98820.41
2023-02-11T02:04:45.210Z,98816.91
2023-02-11T02:07:17.663Z,98816.00
2023-02-11T02:09:49.414Z,98805.81
2023-02-11T02:12:17.018Z,98822.00
2023-02-11T02:14:44.705Z,98825.56
2023-02-11T02:17:18.775Z,98833.34
2023-02-11T02:20:14.644Z,98823.19
2023-02-11T02:23:08.810Z,98826.66
2023-02-11T02:26:01.603Z,98825.16
2023-02-11T02:28:40.811Z,98832.81
2023-02-11T02:31:26.050Z,98826.75
2023-02-11T02:33:57.651Z,98832.06
2023-02-11T02:36:31.066Z,98827.63
2023-02-11T02:39:02.799Z,98825.91
2023-02-11T02:41:32.658Z,98829.31
2023-02-11T02:44:00.503Z,98809.53
2023-02-11T02:46:29.399Z,98822.22
2023-02-11T02:48:59.076Z,98813.63
2023-02-11T02:51:35.708Z,98809.16
2023-02-11T02:54:20.423Z,98803.06
2023-02-11T02:56:54.049Z,98796.88
2023-02-11T02:59:28.625Z,98789.06
2023-02-11T03:02:05.754Z,98791.69
2023-02-11T03:04:39.094Z,98784.81
2023-02-11T03:07:13.449Z,98798.63
2023-02-11T03:09:44.107Z,98787.41
2023-02-11T03:12:13.233Z,98777.16
2023-02-11T03:14:41.753Z,98771.19
2023-02-11T03:17:09.853Z,98790.81
2023-02-11T03:19:39.937Z,98789.81
2023-02-11T03:22:11.597Z,98794.06
2023-02-11T03:24:40.925Z,98792.31
2023-02-11T03:27:14.251Z,98789.69
2023-02-11T03:29:45.577Z,98794.75
2023-02-11T03:32:16.977Z,98801.75
2023-02-11T03:34:48.310Z,98793.13
2023-02-11T03:37:19.534Z,98800.78
2023-02-11T03:39:52.160Z,98800.88
2023-02-11T03:42:20.500Z,98796.47
2023-02-11T03:44:53.785Z,98799.84
2023-02-11T03:47:24.699Z,98778.50
2023-02-11T03:49:54.712Z,98790.19
2023-02-11T03:52:23.327Z,98780.63
2023-02-11T03:54:54.047Z,98780.56
2023-02-11T03:57:21.812Z,98788.41
2023-02-11T03:59:54.917Z,98791.88
2023-02-11T04:02:23.670Z,98779.72
2023-02-11T04:04:51.287Z,98763.53
2023-02-11T04:07:20.328Z,98771.91
2023-02-11T04:09:49.180Z,98767.50
2023-02-11T04:12:17.029Z,98768.28
2023-02-11T04:14:44.697Z,98761.34
2023-02-11T04:17:12.895Z,98765.59
2023-02-11T04:19:40.683Z,98757.75
2023-02-11T04:22:08.955Z,98754.28
2023-02-11T04:24:38.084Z,98748.84
2023-02-11T04:27:05.725Z,98759.19
2023-02-11T04:29:33.425Z,98761.78
2023-02-11T04:32:01.076Z,98760.13
2023-02-11T04:34:28.917Z,98756.75
2023-02-11T04:36:56.666Z,98754.28
2023-02-11T04:39:24.294Z,98743.91
2023-02-11T04:41:53.433Z,98718.03
2023-02-11T04:44:21.074Z,98740.31
2023-02-11T04:46:48.934Z,98735.91
2023-02-11T04:49:17.403Z,98741.91
2023-02-11T04:51:48.914Z,98733.56
2023-02-11T04:54:17.063Z,98734.59
2023-02-11T04:56:45.173Z,98733.00
2023-02-11T04:59:14.218Z,98737.38
2023-02-11T05:01:42.003Z,98743.34
2023-02-11T05:04:09.689Z,98739.84
2023-02-11T05:06:39.309Z,98750.06
2023-02-11T05:09:07.003Z,98751.59
2023-02-11T05:11:34.623Z,98753.13
2023-02-11T05:14:02.493Z,98754.81
2023-02-11T05:16:31.556Z,98751.22
2023-02-11T05:18:59.070Z,98756.28
2023-02-11T05:21:26.722Z,98746.78
2023-02-11T05:23:54.398Z,98745.88
2023-02-11T05:26:22.041Z,98725.19
2023-02-11T05:28:49.700Z,98720.69
2023-02-11T05:31:17.398Z,98707.94
2023-02-11T05:33:46.602Z,98698.69
2023-02-11T05:36:14.584Z,98714.09
2023-02-11T05:38:43.318Z,98718.41
2023-02-11T05:41:12.210Z,98708.97
2023-02-11T05:43:39.884Z,98714.78
2023-02-11T05:46:07.868Z,98702.75
2023-02-11T05:48:35.784Z,98702.66
2023-02-11T05:51:05.263Z,98696.38
2023-02-11T05:53:32.905Z,98705.72
2023-02-11T05:56:00.557Z,98704.03
2023-02-11T05:58:28.435Z,98711.56
2023-02-11T06:00:56.142Z,98705.69
2023-02-11T06:03:23.829Z,98691.78
2023-02-11T06:05:51.718Z,98698.59
2023-02-11T06:08:21.025Z,98688.19
2023-02-11T06:10:48.650Z,98691.59
2023-02-11T06:13:18.593Z,98696.84
2023-02-11T06:15:46.524Z,98705.41
2023-02-11T06:18:14.114Z,98707.13
2023-02-11T06:20:41.847Z,98700.06
2023-02-11T06:23:09.499Z,98701.03
2023-02-11T06:25:38.485Z,98692.06
2023-02-11T06:28:06.182Z,98687.81
2023-02-11T06:30:33.822Z,98696.16
2023-02-11T06:33:01.454Z,98703.88
2023-02-11T06:35:29.187Z,98699.59
2023-02-11T06:37:56.911Z,98712.50
2023-02-11T06:40:24.561Z,98698.66
2023-02-11T06:42:54.015Z,98709.06
2023-02-11T06:45:21.628Z,98714.69
2023-02-11T06:47:49.378Z,98703.63
2023-02-11T06:50:17.077Z,98691.59
2023-02-11T06:52:45.335Z,98678.00
2023-02-11T06:55:12.964Z,98684.50
2023-02-11T06:57:40.621Z,98685.97
2023-02-11T07:00:11.159Z,98687.66
2023-02-11T07:02:38.767Z,98690.09
2023-02-11T07:05:07.736Z,98685.03
2023-02-11T07:07:35.467Z,98685.97
2023-02-11T07:10:04.071Z,98692.84
2023-02-11T07:12:31.697Z,98683.97
2023-02-11T07:14:59.431Z,98676.22
2023-02-11T07:17:28.325Z,98695.81
2023-02-11T07:19:55.889Z,98699.94
2023-02-11T07:22:23.400Z,98690.72
2023-02-11T07:24:51.171Z,98700.88
2023-02-11T07:27:18.744Z,98699.72
2023-02-11T07:29:47.054Z,98692.97
2023-02-11T07:32:14.924Z,98707.25
2023-02-11T07:34:44.012Z,98708.28
2023-02-11T07:37:11.925Z,98707.31
2023-02-11T07:39:39.588Z,98715.16
2023-02-11T07:42:07.705Z,98709.13
2023-02-11T07:44:36.880Z,98715.81
2023-02-11T07:47:04.961Z,98712.22
2023-02-11T07:49:32.685Z,98719.09
2023-02-11T07:52:01.552Z,98719.41
2023-02-11T07:54:29.094Z,98692.47
2023-02-11T07:56:56.717Z,98710.13
2023-02-11T07:59:24.821Z,98709.84
2023-02-11T08:01:52.504Z,98705.94
2023-02-11T08:04:20.024Z,98708.69
2023-02-11T08:06:47.565Z,98701.53
2023-02-11T08:09:17.475Z,98708.13
2023-02-11T08:11:45.413Z,98707.13
2023-02-11T08:14:13.218Z,98716.44
2023-02-11T08:16:41.240Z,98716.19
2023-02-11T08:19:11.882Z,98728.41
2023-02-11T08:21:39.741Z,98721.97
2023-02-11T08:24:08.146Z,98726.94
2023-02-11T08:26:37.694Z,98727.53
2023-02-11T08:29:09.434Z,98718.44
2023-02-11T08:31:38.787Z,98719.47
2023-02-11T08:34:06.859Z,98715.38
2023-02-11T08:36:36.463Z,98709.50
2023-02-11T08:39:18.027Z,98712.78
2023-02-11T08:41:49.701Z,98715.75
2023-02-11T08:44:19.115Z,98723.88
2023-02-11T08:46:46.863Z,98724.94
2023-02-11T08:49:14.846Z,98733.22
2023-02-11T08:51:42.547Z,98716.09
2023-02-11T08:54:10.340Z,98713.50
2023-02-11T08:56:38.853Z,98729.66
2023-02-11T08:59:09.110Z,98725.25
2023-02-11T09:01:36.748Z,98725.34
2023-02-11T09:04:04.493Z,98720.09
2023-02-11T09:06:32.611Z,98725.59
2023-02-11T09:09:00.217Z,98712.63
2023-02-11T09:11:30.037Z,98709.50
2023-02-11T09:13:57.565Z,98713.50
2023-02-11T09:16:28.318Z,98711.25
2023-02-11T09:18:58.299Z,98718.84
2023-02-11T09:21:26.172Z,98722.13
2023-02-11T09:23:53.987Z,98715.88
2023-02-11T09:26:23.541Z,98714.56
2023-02-11T09:28:51.245Z,98715.19
2023-02-11T09:31:21.673Z,98718.47
2023-02-11T09:33:53.817Z,98709.09
2023-02-11T09:36:23.371Z,98707.34
2023-02-11T09:38:51.645Z,98702.72
2023-02-11T09:41:31.182Z,98701.94
2023-02-11T09:44:01.010Z,98704.41
2023-02-11T09:46:32.136Z,98709.09
2023-02-11T09:49:01.146Z,98717.06
2023-02-11T09:51:35.894Z,98718.53
2023-02-11T09:54:06.794Z,98714.28
2023-02-11T09:56:34.344Z,98711.81
2023-02-11T09:59:01.869Z,98713.63
2023-02-11T10:01:34.445Z,98715.56
2023-02-11T10:04:05.928Z,98711.06
2023-02-11T10:06:43.213Z,98702.25
2023-02-11T10:09:46.056Z,98701.63
2023-02-11T10:12:32.726Z,98691.63
2023-02-11T10:15:16.188Z,98702.03
2023-02-11T10:17:56.389Z,98702.28
2023-02-11T10:20:32.811Z,98711.41
2023-02-11T10:23:02.108Z,98703.19
2023-02-11T10:25:35.159Z,98696.88
2023-02-11T10:28:11.788Z,98702.28
2023-02-11T10:30:43.993Z,98699.53
2023-02-11T10:33:16.592Z,98691.63
2023-02-11T10:35:45.696Z,98685.59
2023-02-11T10:38:13.627Z,98689.19
2023-02-11T10:40:41.451Z,98686.25
2023-02-11T10:43:13.006Z,98692.59
2023-02-11T10:45:43.714Z,98687.38
2023-02-11T10:48:39.906Z,98680.56
2023-02-11T10:51:19.189Z,98680.41
2023-02-11T10:53:47.340Z,98673.09
2023-02-11T10:56:22.203Z,98672.28
2023-02-11T10:58:56.899Z,98670.69
2023-02-11T11:01:25.348Z,98668.56
2023-02-11T11:03:53.819Z,98671.16
2023-02-11T11:06:32.056Z,98683.03
2023-02-11T11:08:59.726Z,98692.75
2023-02-11T11:11:27.579Z,98676.75
2023-02-11T11:13:58.240Z,98687.63
2023-02-11T11:16:27.922Z,98690.84
2023-02-11T11:19:17.066Z,98689.56
2023-02-11T11:21:47.114Z,98684.81
2023-02-11T11:24:19.835Z,98681.56
2023-02-11T11:26:49.075Z,98675.50
2023-02-11T11:29:19.065Z,98666.06
2023-02-11T11:31:50.073Z,98670.81
2023-02-11T11:34:24.473Z,98666.19
2023-02-11T11:36:53.460Z,98659.13
2023-02-11T11:39:23.819Z,98660.72
2023-02-11T11:41:53.829Z,98652.44
2023-02-11T11:44:30.223Z,98660.78
2023-02-11T11:47:17.669Z,98656.59
2023-02-11T11:49:50.488Z,98655.09
2023-02-11T11:52:24.080Z,98660.44
2023-02-11T11:54:56.903Z,98660.97
2023-02-11T11:57:28.756Z,98646.81
2023-02-11T11:59:56.447Z,98641.34
2023-02-11T12:02:59.649Z,98646.78
2023-02-11T12:05:28.934Z,98628.03
2023-02-11T12:08:06.908Z,98615.91
2023-02-11T12:10:49.698Z,98621.06
2023-02-11T12:13:27.129Z,98614.72
2023-02-11T12:16:01.207Z,98616.72
2023-02-11T12:18:44.920Z,98627.81
2023-02-11T12:21:22.504Z,98605.47
2023-02-11T12:24:01.943Z,98603.31
2023-02-11T12:26:32.721Z,98602.66
2023-02-11T12:29:07.704Z,98603.44
2023-02-11T12:31:49.124Z,98604.59
2023-02-11T12:34:38.008Z,98601.25
2023-02-11T12:37:10.662Z,98599.75
2023-02-11T12:39:45.438Z,98602.31
2023-02-11T12:42:49.047Z,98597.81
2023-02-11T12:45:23.820Z,98590.78
2023-02-11T12:48:02.933Z,98584.34
2023-02-11T12:50:36.369Z,98587.63
2023-02-11T12:53:17.455Z,98585.06
2023-02-11T12:55:50.218Z,98577.91
2023-02-11T12:58:20.273Z,98581.44
2023-02-11T13:00:52.472Z,98583.97
2023-02-11T13:03:24.757Z,98579.16
2023-02-11T13:05:54.435Z,98585.94
2023-02-11T13:08:25.896Z,98579.81
2023-02-11T13:10:57.225Z,98588.78
2023-02-11T13:13:28.908Z,98589.75
2023-02-11T13:16:00.923Z,98588.41
2023-02-11T13:18:49.435Z,98591.00
2023-02-11T13:21:26.650Z,98588.63
2023-02-11T13:24:00.739Z,98582.34
2023-02-11T13:26:34.689Z,98583.47
2023-02-11T13:29:11.368Z,98584.69
2023-02-11T13:31:39.033Z,98582.63
2023-02-11T13:34:24.283Z,98576.22
2023-02-11T13:36:55.971Z,98571.28
2023-02-11T13:39:23.656Z,98583.44
2023-02-11T13:42:03.164Z,98570.56
2023-02-11T13:44:31.291Z,98567.59
2023-02-11T13:47:01.309Z,98571.38
2023-02-11T13:49:33.070Z,98571.53
2023-02-11T13:52:01.714Z,98575.19
2023-02-11T13:54:35.603Z,98567.53
2023-02-11T13:57:41.907Z,98563.03
2023-02-11T14:00:49.747Z,98560.94
2023-02-11T14:03:45.044Z,98561.06
2023-02-11T14:06:36.040Z,98563.31
2023-02-11T14:09:12.070Z,98554.84
2023-02-11T14:11:50.851Z,98553.56
2023-02-11T14:14:23.831Z,98552.97
2023-02-11T14:17:18.875Z,98557.47
2023-02-11T14:19:47.411Z,98565.66
2023-02-11T14:22:16.555Z,98572.50
2023-02-11T14:24:50.980Z,98569.88
2023-02-11T14:27:43.770Z,98572.84
2023-02-11T14:30:49.992Z,98583.38
2023-02-11T14:33:35.861Z,98565.72
2023-02-11T14:36:09.340Z,98571.81
2023-02-11T14:38:44.601Z,98553.91
2023-02-11T14:41:17.466Z,98543.97
2023-02-11T14:43:47.337Z,98542.09
2023-02-11T14:46:16.405Z,98550.34
2023-02-11T14:48:47.615Z,98557.44
2023-02-11T14:51:17.306Z,98544.19
2023-02-11T14:53:46.922Z,98546.34
2023-02-11T14:56:22.929Z,98541.56
2023-02-11T14:58:51.701Z,98536.25
2023-02-11T15:01:31.782Z,98544.19
2023-02-11T15:04:01.178Z,98548.31
2023-02-11T15:06:31.911Z,98550.56
2023-02-11T15:09:02.217Z,98548.50
2023-02-11T15:11:32.307Z,98549.00
2023-02-11T15:14:09.600Z,98546.66
2023-02-11T15:16:41.917Z,98560.84
2023-02-11T15:19:20.972Z,98560.00
2023-02-11T15:21:48.580Z,98570.53
2023-02-11T15:24:25.215Z,98572.78
2023-02-11T15:27:03.029Z,98571.19
2023-02-11T15:29:37.045Z,98575.56
2023-02-11T15:32:12.619Z,98575.75
2023-02-11T15:34:41.781Z,98583.00
2023-02-11T15:37:12.253Z,98583.69
2023-02-11T15:39:42.091Z,98584.59
2023-02-11T15:42:20.559Z,98583.69
2023-02-11T15:44:56.359Z,98592.44
2023-02-11T15:47:30.597Z,98592.53
2023-02-11T15:49:59.686Z,98589.34
2023-02-11T15:52:28.500Z,98601.66
2023-02-11T15:54:57.286Z,98592.81
2023-02-11T15:57:24.801Z,98600.16
2023-02-11T15:59:54.797Z,98598.00
2023-02-11T16:02:26.305Z,98598.09
2023-02-11T16:04:55.434Z,98593.88
2023-02-11T16:07:45.984Z,98599.38
2023-02-11T16:10:19.103Z,98607.28
2023-02-11T16:12:52.879Z,98602.53
2023-02-11T16:15:47.702Z,98606.47
2023-02-11T16:18:28.533Z,98616.44
2023-02-11T16:21:05.099Z,98612.25
2023-02-11T16:23:35.881Z,98601.59
2023-02-11T16:26:08.826Z,98616.03
2023-02-11T16:28:37.555Z,98617.06
2023-02-11T16:31:06.341Z,98600.91
2023-02-11T16:33:34.001Z,98621.63
2023-02-11T16:36:02.957Z,98621.72
2023-02-11T16:38:31.292Z,98627.69
2023-02-11T16:41:00.136Z,98634.41
2023-02-11T16:43:28.151Z,98635.53
2023-02-11T16:45:55.688Z,98642.69
2023-02-11T16:48:23.258Z,98627.38
2023-02-11T16:50:53.434Z,98638.28
2023-02-11T16:53:24.121Z,98643.69
2023-02-11T16:55:52.188Z,98651.19
2023-02-11T16:58:21.108Z,98646.91
2023-02-11T17:00:49.341Z,98646.72
2023-02-11T17:03:19.635Z,98656.31
2023-02-11T17:05:55.343Z,98655.72
2023-02-11T17:08:23.343Z,98654.97
2023-02-11T17:10:51.110Z,98666.09
2023-02-11T17:13:18.783Z,98669.69
2023-02-11T17:15:47.609Z,98666.41
2023-02-11T17:18:15.227Z,98659.63
2023-02-11T17:20:42.899Z,98662.47
2023-02-11T17:23:10.811Z,98663.41
2023-02-11T17:25:38.458Z,98661.97
2023-02-11T17:28:06.798Z,98657.59
2023-02-11T17:30:34.519Z,98661.13
2023-02-11T17:33:03.391Z,98674.25
2023-02-11T17:35:30.891Z,98671.81
2023-02-11T17:37:59.100Z,98673.66
2023-02-11T17:40:26.724Z,98674.94
2023-02-11T17:42:54.242Z,98679.91
2023-02-11T17:45:22.523Z,98673.44
2023-02-11T17:47:50.172Z,98683.00
2023-02-11T17:50:19.364Z,98695.22
2023-02-11T17:52:46.884Z,98696.66
2023-02-11T17:55:14.448Z,98696.72
2023-02-11T17:57:41.994Z,98700.09
2023-02-11T18:00:11.288Z,98694.97
2023-02-11T18:02:39.259Z,98690.75
2023-02-11T18:05:07.319Z,98694.22
2023-02-11T18:07:36.239Z,98694.97
2023-02-11T18:10:03.774Z,98700.94
2023-02-11T18:12:31.254Z,98702.69
2023-02-11T18:14:58.773Z,98697.72
2023-02-11T18:17:26.706Z,98699.75
2023-02-11T18:19:56.378Z,98692.50
2023-02-11T18:22:24.441Z,98692.50
2023-02-11T18:24:54.208Z,98691.00
2023-02-11T18:27:21.887Z,98692.50
2023-02-11T18:29:49.426Z,98709.94
2023-02-11T18:32:17.195Z,98711.03
2023-02-11T18:34:44.705Z,98702.34
2023-02-11T18:37:13.931Z,98704.97
2023-02-11T18:39:42.225Z,98699.31
2023-02-11T18:42:11.280Z,98701.75
2023-02-11T18:44:38.778Z,98718.47
2023-02-11T18:47:06.317Z,98719.22
2023-02-11T18:49:36.072Z,98721.13
2023-02-11T18:52:03.662Z,98717.06
2023-02-11T18:54:31.226Z,98715.41
2023-02-11T18:56:58.744Z,98720.38
2023-02-11T18:59:27.573Z,98722.22
2023-02-11T19:01:55.084Z,98725.59
2023-02-11T19:04:23.253Z,98718.47
2023-02-11T19:06:50.916Z,98720.91
2023-02-11T19:09:19.892Z,98721.81
2023-02-11T19:11:55.356Z,98721.66
2023-02-11T19:14:24.895Z,98716.91
2023-02-11T19:16:55.431Z,98741.66
2023-02-11T19:19:24.100Z,98730.41
2023-02-11T19:21:51.794Z,98734.59
2023-02-11T19:24:19.926Z,98730.81
2023-02-11T19:26:48.163Z,98731.47
2023-02-11T19:29:15.886Z,98733.59
2023-02-11T19:31:44.181Z,98735.84
2023-02-11T19:34:14.644Z,98739.47
2023-02-11T19:36:42.949Z,98731.91
2023-02-11T19:39:11.052Z,98738.09
2023-02-11T19:41:38.762Z,98739.19
2023-02-11T19:44:07.954Z,98737.91
2023-02-11T19:46:37.420Z,98729.09
2023-02-11T19:49:06.397Z,98734.25
2023-02-11T19:51:36.879Z,98719.59
2023-02-11T19:54:04.915Z,98727.50
2023-02-11T19:56:32.553Z,98729.34
2023-02-11T19:59:00.112Z,98721.47
2023-02-11T20:01:27.698Z,98728.44
2023-02-11T20:03:57.329Z,98723.22
2023-02-11T20:06:26.348Z,98725.66
2023-02-11T20:08:58.467Z,98721.19
2023-02-11T20:11:28.173Z,98722.00
2023-02-11T20:13:56.357Z,98721.88
2023-02-11T20:16:40.731Z,98719.69
2023-02-11T20:19:16.730Z,98717.34
2023-02-11T20:21:46.815Z,98722.28
2023-02-11T20:24:17.711Z,98727.47
2023-02-11T20:26:46.865Z,98733.56
2023-02-11T20:29:15.278Z,98740.78
2023-02-11T20:31:43.327Z,98736.31
2023-02-11T20:34:11.446Z,98747.19
2023-02-11T20:36:40.215Z,98749.56
2023-02-11T20:39:08.074Z,98751.13
2023-02-11T20:41:39.647Z,98740.34
2023-02-11T20:44:09.019Z,98755.66
2023-02-11T20:46:40.142Z,98747.75
2023-02-11T20:49:08.682Z,98750.13
2023-02-11T20:51:37.348Z,98750.66
2023-02-11T20:54:06.057Z,98761.91
2023-02-11T20:56:35.615Z,98747.88
2023-02-11T20:59:06.092Z,98748.47
2023-02-11T21:01:35.250Z,98754.22
2023-02-11T21:04:05.461Z,98744.09
2023-02-11T21:06:35.518Z,98749.91
2023-02-11T21:09:03.649Z,98744.38
2023-02-11T21:11:31.810Z,98748.50
2023-02-11T21:13:59.466Z,98749.31
2023-02-11T21:16:28.542Z,98751.69
2023-02-11T21:18:56.849Z,98752.22
2023-02-11T21:21:25.014Z,98746.91
2023-02-11T21:23:52.700Z,98760.63
2023-02-11T21:26:20.408Z,98769.22
2023-02-11T21:28:48.680Z,98773.50
2023-02-11T21:31:20.479Z,98767.25
2023-02-11T21:33:49.939Z,98766.28
2023-02-11T21:36:17.964Z,98774.09
2023-02-11T21:38:45.755Z,98784.13
2023-02-11T21:41:13.464Z,98777.81
2023-02-11T21:43:41.072Z,98792.28
2023-02-11T21:46:09.841Z,98790.19
2023-02-11T21:48:38.021Z,98791.78
2023-02-11T21:51:08.662Z,98792.72
2023-02-11T21:53:36.546Z,98792.03
2023-02-11T21:56:08.761Z,98798.59
2023-02-11T21:58:37.028Z,98798.53
2023-02-11T22:01:11.497Z,98795.50
2023-02-11T22:03:39.082Z,98801.72
2023-02-11T22:06:09.688Z,98795.06
2023-02-11T22:08:37.367Z,98790.75
2023-02-11T22:11:05.806Z,98795.41
2023-02-11T22:13:33.957Z,98800.03
2023-02-11T22:16:02.588Z,98801.72
2023-02-11T22:18:31.082Z,98804.25
2023-02-11T22:21:00.423Z,98808.47
2023-02-11T22:23:29.910Z,98797.50
2023-02-11T22:25:57.889Z,98800.22
2023-02-11T22:28:26.304Z,98793.97
2023-02-11T22:30:55.215Z,98795.81
2023-02-11T22:33:22.979Z,98794.56
2023-02-11T22:35:50.748Z,98790.28
2023-02-11T22:38:18.259Z,98796.44
2023-02-11T22:40:47.097Z,98795.00
2023-02-11T22:43:14.662Z,98791.69
2023-02-11T22:45:42.162Z,98797.78
2023-02-11T22:48:09.656Z,98804.56
2023-02-11T22:50:37.346Z,98803.66
2023-02-11T22:53:04.846Z,98810.81
2023-02-11T22:55:32.407Z,98807.19
2023-02-11T22:58:01.266Z,98800.09
2023-02-11T23:00:31.528Z,98799.44
2023-02-11T23:02:59.195Z,98801.31
2023-02-11T23:05:26.772Z,98810.72
2023-02-11T23:07:54.269Z,98812.25
2023-02-11T23:10:22.403Z,98815.59
2023-02-11T23:12:50.104Z,98808.63
2023-02-11T23:15:19.208Z,98808.69
2023-02-11T23:17:46.730Z,98815.88
2023-02-11T23:20:14.633Z,98815.13
2023-02-11T23:22:42.162Z,98828.94
2023-02-11T23:25:09.709Z,98820.50
2023-02-11T23:27:37.371Z,98816.28
2023-02-11T23:30:05.765Z,98816.22
2023-02-11T23:32:34.667Z,98826.66
2023-02-11T23:35:02.630Z,98823.78
2023-02-11T23:37:30.145Z,98830.25
2023-02-11T23:39:57.687Z,98817.47
2023-02-11T23:42:25.510Z,98817.88
2023-02-11T23:44:53.052Z,98820.72
2023-02-11T23:47:20.579Z,98826.09
2023-02-11T23:49:49.462Z,98823.06
2023-02-11T23:52:17.628Z,98826.50
2023-02-11T23:54:48.155Z,98831.50
2023-02-11T23:57:16.080Z,98832.41
2023-02-11T23:59:43.772Z,98819.31
